createdAt,value
2023-01-02T00:00:59.933Z,8.02
2023-01-02T00:03:27.056Z,8.05
2023-01-02T00:05:54.837Z,8.06
2023-01-02T00:08:21.850Z,8.09
2023-01-02T00:10:52.662Z,8.13
2023-01-02T00:13:20.253Z,8.14
2023-01-02T00:15:47.270Z,8.14
2023-01-02T00:18:14.341Z,8.14
2023-01-02T00:20:41.226Z,8.13
2023-01-02T00:23:08.159Z,8.13
2023-01-02T00:25:35.467Z,8.12
2023-01-02T00:28:02.617Z,8.12
2023-01-02T00:30:37.581Z,8.12
2023-01-02T00:33:06.460Z,8.12
2023-01-02T00:35:33.874Z,8.10
2023-01-02T00:38:00.809Z,8.09
2023-01-02T00:40:27.985Z,8.08
2023-01-02T00:42:54.912Z,8.07
2023-01-02T00:45:22.121Z,8.04
2023-01-02T00:47:49.111Z,8.04
2023-01-02T00:50:16.150Z,8.05
2023-01-02T00:52:43.153Z,8.04
2023-01-02T00:55:10.526Z,8.02
2023-01-02T00:57:39.870Z,8.02
2023-01-02T01:00:07.780Z,7.97
2023-01-02T01:02:34.819Z,7.96
2023-01-02T01:05:02.601Z,7.96
2023-01-02T01:07:30.060Z,7.94
2023-01-02T01:09:56.926Z,7.94
2023-01-02T01:12:23.947Z,7.95
2023-01-02T01:14:50.869Z,7.96
2023-01-02T01:17:17.767Z,7.98
2023-01-02T01:19:44.685Z,8.00
2023-01-02T01:22:11.986Z,8.02
2023-01-02T01:24:38.947Z,8.01
2023-01-02T01:27:05.919Z,7.97
2023-01-02T01:29:32.949Z,7.97
2023-01-02T01:31:59.845Z,7.98
2023-01-02T01:34:26.877Z,7.99
2023-01-02T01:36:53.865Z,8.01
2023-01-02T01:39:20.786Z,8.04
2023-01-02T01:41:47.868Z,8.05
2023-01-02T01:44:44.586Z,8.06
2023-01-02T01:47:20.580Z,8.10
2023-01-02T01:49:49.585Z,8.10
2023-01-02T01:52:23.184Z,8.13
2023-01-02T01:55:07.885Z,8.13
2023-01-02T01:57:42.515Z,8.12
2023-01-02T02:00:10.225Z,8.10
2023-01-02T02:02:40.604Z,8.13
2023-01-02T02:05:08.096Z,8.14
2023-01-02T02:07:35.919Z,8.17
2023-01-02T02:10:11.452Z,8.19
2023-01-02T02:12:38.638Z,8.23
2023-01-02T02:15:09.400Z,8.24
2023-01-02T02:18:05.823Z,8.24
2023-01-02T02:20:44.233Z,8.27
2023-01-02T02:23:19.260Z,8.28
2023-01-02T02:25:55.662Z,8.28
2023-01-02T02:28:47.695Z,8.30
2023-01-02T02:31:33.972Z,8.32
2023-01-02T02:34:23.764Z,8.29
2023-01-02T02:37:02.459Z,8.30
2023-01-02T02:39:48.273Z,8.31
2023-01-02T02:42:43.048Z,8.32
2023-01-02T02:45:27.645Z,8.32
2023-01-02T02:48:03.205Z,8.33
2023-01-02T02:50:34.557Z,8.35
2023-01-02T02:53:19.623Z,8.33
2023-01-02T02:55:49.715Z,8.34
2023-01-02T02:58:17.804Z,8.32
2023-01-02T03:00:44.881Z,8.32
2023-01-02T03:03:22.548Z,8.27
2023-01-02T03:05:52.459Z,8.26
2023-01-02T03:08:33.261Z,8.25
2023-01-02T03:11:02.004Z,8.28
2023-01-02T03:14:04.218Z,8.26
2023-01-02T03:16:38.052Z,8.25
2023-01-02T03:19:24.025Z,8.24
2023-01-02T03:22:03.647Z,8.22
2023-01-02T03:24:31.289Z,8.23
2023-01-02T03:27:06.982Z,8.26
2023-01-02T03:29:38.248Z,8.24
2023-01-02T03:32:09.349Z,8.26
2023-01-02T03:34:39.156Z,8.27
2023-01-02T03:37:10.471Z,8.27
2023-01-02T03:39:44.809Z,8.28
2023-01-02T03:42:20.785Z,8.28
2023-01-02T03:44:56.601Z,8.30
2023-01-02T03:47:45.426Z,8.34
2023-01-02T03:50:25.555Z,8.40
2023-01-02T03:52:52.700Z,8.46
2023-01-02T03:55:20.211Z,8.46
2023-01-02T03:58:24.363Z,8.47
2023-01-02T04:01:06.335Z,8.49
2023-01-02T04:03:46.840Z,8.49
2023-01-02T04:06:25.010Z,8.47
2023-01-02T04:09:00.769Z,8.47
2023-01-02T04:11:29.265Z,8.47
2023-01-02T04:14:01.283Z,8.45
2023-01-02T04:16:31.373Z,8.46
2023-01-02T04:19:23.766Z,8.46
2023-01-02T04:21:54.546Z,8.48
2023-01-02T04:24:35.165Z,8.48
2023-01-02T04:27:13.936Z,8.49
2023-01-02T04:29:41.366Z,8.51
2023-01-02T04:32:37.873Z,8.51
2023-01-02T04:35:14.019Z,8.52
2023-01-02T04:37:43.138Z,8.52
2023-01-02T04:40:19.504Z,8.51
2023-01-02T04:42:46.992Z,8.53
2023-01-02T04:45:16.566Z,8.52
2023-01-02T04:47:43.873Z,8.54
2023-01-02T04:50:10.908Z,8.52
2023-01-02T04:52:37.880Z,8.53
2023-01-02T04:55:08.468Z,8.52
2023-01-02T04:57:36.366Z,8.52
2023-01-02T05:00:05.490Z,8.54
2023-01-02T05:02:36.589Z,8.55
2023-01-02T05:05:04.930Z,8.57
2023-01-02T05:07:33.740Z,8.58
2023-01-02T05:10:00.866Z,8.57
2023-01-02T05:12:28.006Z,8.57
2023-01-02T05:14:55.088Z,8.57
2023-01-02T05:17:22.276Z,8.57
2023-01-02T05:19:49.351Z,8.59
2023-01-02T05:22:34.808Z,8.54
2023-01-02T05:25:01.899Z,8.56
2023-01-02T05:27:28.955Z,8.55
2023-01-02T05:29:56.019Z,8.61
2023-01-02T05:32:22.927Z,8.63
2023-01-02T05:34:49.977Z,8.66
2023-01-02T05:37:16.876Z,8.71
2023-01-02T05:39:43.828Z,8.72
2023-01-02T05:42:10.842Z,8.74
2023-01-02T05:44:37.729Z,8.78
2023-01-02T05:47:04.835Z,8.78
2023-01-02T05:49:31.807Z,8.79
2023-01-02T05:51:58.765Z,8.80
2023-01-02T05:54:25.656Z,8.82
2023-01-02T05:56:52.773Z,8.86
2023-01-02T05:59:19.704Z,8.89
2023-01-02T06:01:46.914Z,8.91
2023-01-02T06:04:19.475Z,8.92
2023-01-02T06:06:47.533Z,8.96
2023-01-02T06:09:15.715Z,8.96
2023-01-02T06:11:43.370Z,8.98
2023-01-02T06:14:10.907Z,8.98
2023-01-02T06:16:38.975Z,8.98
2023-01-02T06:19:06.785Z,8.96
2023-01-02T06:21:34.225Z,8.93
2023-01-02T06:24:01.235Z,8.93
2023-01-02T06:26:34.647Z,8.90
2023-01-02T06:29:03.265Z,8.90
2023-01-02T06:31:30.470Z,8.92
2023-01-02T06:33:59.044Z,8.90
2023-01-02T06:36:28.107Z,8.90
2023-01-02T06:38:55.052Z,8.94
2023-01-02T06:41:21.989Z,8.92
2023-01-02T06:43:51.055Z,8.93
2023-01-02T06:46:20.024Z,8.96
2023-01-02T06:48:47.303Z,8.95
2023-01-02T06:51:16.663Z,8.94
2023-01-02T06:53:44.289Z,8.94
2023-01-02T06:56:12.126Z,8.94
2023-01-02T06:58:40.071Z,8.98
2023-01-02T07:01:25.398Z,8.97
2023-01-02T07:03:52.573Z,9.00
2023-01-02T07:06:21.898Z,9.00
2023-01-02T07:08:49.001Z,9.00
2023-01-02T07:11:18.305Z,9.02
2023-01-02T07:13:46.681Z,9.01
2023-01-02T07:16:15.853Z,9.04
2023-01-02T07:18:43.367Z,9.04
2023-01-02T07:21:11.607Z,9.05
2023-01-02T07:23:39.263Z,9.05
2023-01-02T07:26:07.098Z,9.06
2023-01-02T07:28:35.348Z,9.06
2023-01-02T07:31:05.173Z,9.10
2023-01-02T07:33:33.011Z,9.10
2023-01-02T07:36:08.787Z,9.10
2023-01-02T07:38:38.346Z,9.10
2023-01-02T07:41:16.047Z,9.11
2023-01-02T07:43:44.798Z,9.13
2023-01-02T07:46:13.131Z,9.15
2023-01-02T07:48:40.413Z,9.17
2023-01-02T07:51:08.463Z,9.19
2023-01-02T07:53:35.696Z,9.18
2023-01-02T07:56:03.003Z,9.20
2023-01-02T07:58:30.414Z,9.22
2023-01-02T08:01:04.917Z,9.23
2023-01-02T08:03:32.935Z,9.23
2023-01-02T08:06:08.024Z,9.25
2023-01-02T08:08:35.707Z,9.28
2023-01-02T08:11:07.266Z,9.26
2023-01-02T08:13:34.523Z,9.28
2023-01-02T08:16:09.733Z,9.28
2023-01-02T08:18:37.148Z,9.28
2023-01-02T08:21:04.927Z,9.28
2023-01-02T08:23:32.644Z,9.27
2023-01-02T08:26:00.897Z,9.27
2023-01-02T08:28:28.313Z,9.28
2023-01-02T08:30:55.438Z,9.28
2023-01-02T08:33:22.979Z,9.31
2023-01-02T08:35:50.014Z,9.31
2023-01-02T08:38:17.019Z,9.32
2023-01-02T08:40:44.135Z,9.33
2023-01-02T08:43:11.222Z,9.33
2023-01-02T08:45:38.166Z,9.32
2023-01-02T08:48:20.550Z,9.30
2023-01-02T08:50:51.947Z,9.31
2023-01-02T08:53:19.051Z,9.31
2023-01-02T08:55:46.167Z,9.32
2023-01-02T08:58:13.702Z,9.32
2023-01-02T09:00:40.917Z,9.32
2023-01-02T09:03:08.090Z,9.34
2023-01-02T09:05:35.256Z,9.34
2023-01-02T09:08:02.524Z,9.38
2023-01-02T09:10:29.599Z,9.44
2023-01-02T09:12:56.614Z,9.53
2023-01-02T09:15:23.728Z,9.58
2023-01-02T09:17:50.710Z,9.61
2023-01-02T09:20:17.911Z,9.64
2023-01-02T09:22:44.949Z,9.67
2023-01-02T09:25:12.490Z,9.70
2023-01-02T09:27:39.523Z,9.75
2023-01-02T09:30:07.112Z,9.79
2023-01-02T09:32:34.494Z,9.82
2023-01-02T09:35:01.581Z,9.85
2023-01-02T09:37:28.729Z,9.88
2023-01-02T09:39:55.712Z,9.93
2023-01-02T09:42:22.754Z,9.94
2023-01-02T09:44:55.975Z,9.97
2023-01-02T09:47:29.864Z,9.98
2023-01-02T09:50:01.289Z,10.04
2023-01-02T09:52:33.340Z,10.05
2023-01-02T09:55:00.479Z,10.05
2023-01-02T09:57:27.428Z,10.06
2023-01-02T10:00:01.322Z,10.00
2023-01-02T10:02:47.042Z,10.00
2023-01-02T10:05:51.367Z,10.00
2023-01-02T10:08:39.886Z,9.96
2023-01-02T10:11:30.551Z,9.98
2023-01-02T10:14:33.696Z,9.99
2023-01-02T10:16:58.389Z,9.99
2023-01-02T10:19:41.394Z,10.00
2023-01-02T10:22:12.025Z,10.06
2023-01-02T10:25:17.104Z,10.13
2023-01-02T10:27:48.267Z,10.16
2023-01-02T10:30:20.627Z,10.15
2023-01-02T10:32:55.515Z,10.20
2023-01-02T10:35:51.043Z,10.23
2023-01-02T10:38:19.434Z,10.31
2023-01-02T10:40:48.752Z,10.34
2023-01-02T10:43:16.106Z,10.36
2023-01-02T10:45:43.509Z,10.41
2023-01-02T10:48:15.363Z,10.41
2023-01-02T10:50:44.612Z,10.50
2023-01-02T10:53:33.358Z,10.51
2023-01-02T10:56:14.702Z,10.50
2023-01-02T10:58:49.675Z,10.50
2023-01-02T11:01:22.141Z,10.50
2023-01-02T11:03:55.604Z,10.47
2023-01-02T11:06:31.067Z,10.48
2023-01-02T11:09:02.206Z,10.50
2023-01-02T11:11:31.993Z,10.53
2023-01-02T11:14:14.643Z,10.62
2023-01-02T11:16:42.295Z,10.70
2023-01-02T11:19:20.490Z,10.78
2023-01-02T11:21:53.135Z,10.85
2023-01-02T11:24:25.925Z,10.87
2023-01-02T11:26:53.847Z,10.93
2023-01-02T11:29:33.986Z,11.00
2023-01-02T11:32:02.473Z,11.03
2023-01-02T11:34:38.431Z,11.03
2023-01-02T11:37:17.766Z,11.05
2023-01-02T11:40:16.111Z,11.06
2023-01-02T11:43:06.608Z,11.08
2023-01-02T11:45:34.277Z,11.09
2023-01-02T11:48:05.459Z,11.08
2023-01-02T11:50:37.594Z,11.06
2023-01-02T11:53:17.451Z,11.08
2023-01-02T11:55:55.443Z,11.04
2023-01-02T11:58:31.450Z,11.04
2023-01-02T12:01:30.344Z,11.03
2023-01-02T12:03:57.714Z,11.03
2023-01-02T12:06:47.027Z,11.01
2023-01-02T12:09:35.892Z,11.01
2023-01-02T12:12:40.437Z,10.99
2023-01-02T12:15:07.397Z,10.96
2023-01-02T12:17:56.969Z,10.93
2023-01-02T12:20:45.616Z,10.94
2023-01-02T12:23:21.873Z,10.93
2023-01-02T12:25:55.656Z,10.92
2023-01-02T12:28:44.122Z,10.96
2023-01-02T12:31:39.162Z,10.99
2023-01-02T12:34:34.442Z,11.03
2023-01-02T12:37:17.833Z,11.07
2023-01-02T12:39:51.138Z,11.05
2023-01-02T12:42:41.932Z,11.05
2023-01-02T12:45:37.893Z,11.06
2023-01-02T12:48:24.807Z,11.08
2023-01-02T12:51:18.201Z,11.11
2023-01-02T12:54:20.245Z,11.13
2023-01-02T12:57:25.308Z,11.14
2023-01-02T13:00:11.178Z,11.16
2023-01-02T13:02:53.485Z,11.16
2023-01-02T13:05:29.362Z,11.15
2023-01-02T13:07:59.910Z,11.18
2023-01-02T13:10:28.503Z,11.19
2023-01-02T13:12:57.698Z,11.23
2023-01-02T13:15:28.181Z,11.24
2023-01-02T13:18:19.957Z,11.25
2023-01-02T13:21:07.687Z,11.27
2023-01-02T13:23:37.444Z,11.27
2023-01-02T13:26:10.207Z,11.25
2023-01-02T13:28:53.940Z,11.26
2023-01-02T13:31:46.655Z,11.28
2023-01-02T13:34:14.353Z,11.30
2023-01-02T13:36:44.880Z,11.29
2023-01-02T13:39:36.287Z,11.26
2023-01-02T13:42:22.846Z,11.25
2023-01-02T13:44:54.904Z,11.21
2023-01-02T13:47:33.582Z,11.20
2023-01-02T13:50:20.688Z,11.18
2023-01-02T13:53:01.750Z,11.14
2023-01-02T13:55:53.810Z,11.15
2023-01-02T13:58:25.338Z,11.13
2023-01-02T14:00:56.773Z,11.14
2023-01-02T14:03:24.130Z,11.13
2023-01-02T14:05:59.397Z,11.09
2023-01-02T14:09:03.861Z,11.11
2023-01-02T14:11:55.696Z,11.11
2023-01-02T14:14:46.214Z,11.14
2023-01-02T14:17:37.668Z,11.12
2023-01-02T14:20:24.129Z,11.07
2023-01-02T14:22:59.561Z,11.08
2023-01-02T14:25:26.812Z,11.09
2023-01-02T14:27:59.901Z,11.10
2023-01-02T14:30:37.434Z,11.06
2023-01-02T14:33:06.960Z,11.04
2023-01-02T14:35:54.542Z,11.00
2023-01-02T14:38:24.592Z,10.96
2023-01-02T14:40:53.808Z,10.97
2023-01-02T14:43:32.639Z,11.00
2023-01-02T14:46:19.978Z,11.00
2023-01-02T14:48:50.352Z,11.02
2023-01-02T14:51:21.898Z,11.06
2023-01-02T14:53:50.149Z,11.10
2023-01-02T14:56:21.327Z,11.09
2023-01-02T14:58:49.088Z,11.09
2023-01-02T15:01:43.826Z,11.13
2023-01-02T15:04:18.669Z,11.07
2023-01-02T15:06:48.638Z,11.00
2023-01-02T15:09:29.805Z,10.97
2023-01-02T15:12:18.299Z,10.96
2023-01-02T15:14:45.448Z,10.93
2023-01-02T15:17:22.621Z,10.93
2023-01-02T15:19:49.965Z,10.93
2023-01-02T15:22:19.672Z,10.94
2023-01-02T15:24:49.681Z,10.94
2023-01-02T15:27:35.326Z,10.99
2023-01-02T15:30:18.131Z,11.06
2023-01-02T15:32:49.399Z,11.07
2023-01-02T15:35:29.059Z,11.09
2023-01-02T15:37:56.209Z,11.17
2023-01-02T15:40:32.191Z,11.21
2023-01-02T15:43:22.559Z,11.22
2023-01-02T15:45:51.690Z,11.21
2023-01-02T15:48:20.280Z,11.26
2023-01-02T15:50:49.408Z,11.28
2023-01-02T15:53:29.351Z,11.35
2023-01-02T15:55:57.373Z,11.40
2023-01-02T15:58:28.851Z,11.42
2023-01-02T16:01:22.526Z,11.41
2023-01-02T16:04:00.165Z,11.39
2023-01-02T16:06:35.898Z,11.39
2023-01-02T16:09:06.067Z,11.39
2023-01-02T16:11:45.681Z,11.39
2023-01-02T16:14:22.457Z,11.37
2023-01-02T16:17:03.142Z,11.38
2023-01-02T16:20:01.944Z,11.38
2023-01-02T16:22:33.746Z,11.36
2023-01-02T16:25:08.126Z,11.32
2023-01-02T16:27:46.510Z,11.26
2023-01-02T16:30:25.627Z,11.24
2023-01-02T16:32:53.096Z,11.27
2023-01-02T16:35:23.535Z,11.23
2023-01-02T16:37:58.648Z,11.28
2023-01-02T16:40:59.073Z,11.28
2023-01-02T16:43:14.079Z,11.37
2023-01-02T16:45:41.605Z,11.34
2023-01-02T16:48:15.392Z,11.30
2023-01-02T16:50:44.894Z,11.28
2023-01-02T16:53:35.215Z,11.23
2023-01-02T16:56:02.330Z,11.31
2023-01-02T16:58:30.160Z,11.30
2023-01-02T17:00:57.592Z,11.31
2023-01-02T17:03:26.966Z,11.38
2023-01-02T17:06:08.338Z,11.44
2023-01-02T17:08:35.757Z,11.45
2023-01-02T17:11:03.453Z,11.57
2023-01-02T17:13:31.341Z,11.67
2023-01-02T17:15:59.213Z,11.67
2023-01-02T17:18:26.922Z,11.60
2023-01-02T17:20:54.947Z,11.54
2023-01-02T17:23:22.056Z,11.43
2023-01-02T17:25:49.213Z,11.44
2023-01-02T17:28:16.548Z,11.44
2023-01-02T17:30:45.548Z,11.43
2023-01-02T17:33:13.616Z,11.46
2023-01-02T17:35:41.035Z,11.48
2023-01-02T17:38:08.294Z,11.55
2023-01-02T17:40:35.199Z,11.54
2023-01-02T17:43:02.409Z,11.59
2023-01-02T17:45:29.734Z,11.60
2023-01-02T17:48:03.542Z,11.65
2023-01-02T17:50:33.698Z,11.64
2023-01-02T17:53:00.960Z,11.60
2023-01-02T17:55:28.330Z,11.58
2023-01-02T17:57:55.341Z,11.57
2023-01-02T18:00:24.359Z,11.57
2023-01-02T18:02:52.991Z,11.58
2023-01-02T18:05:21.844Z,11.65
2023-01-02T18:07:49.216Z,11.68
2023-01-02T18:10:20.578Z,11.71
2023-01-02T18:12:49.793Z,11.72
2023-01-02T18:15:18.585Z,11.73
2023-01-02T18:17:45.664Z,11.71
2023-01-02T18:20:16.390Z,11.71
2023-01-02T18:22:49.710Z,11.74
2023-01-02T18:25:19.977Z,11.73
2023-01-02T18:27:48.978Z,11.74
2023-01-02T18:30:23.039Z,11.77
2023-01-02T18:32:57.332Z,11.80
2023-01-02T18:35:56.204Z,11.84
2023-01-02T18:38:35.886Z,11.86
2023-01-02T18:41:17.386Z,11.89
2023-01-02T18:43:46.037Z,11.90
2023-01-02T18:46:22.409Z,11.96
2023-01-02T18:48:49.640Z,11.94
2023-01-02T18:51:22.890Z,11.95
2023-01-02T18:53:56.263Z,11.95
2023-01-02T18:56:25.733Z,11.98
2023-01-02T18:58:55.462Z,12.00
2023-01-02T19:01:26.967Z,11.98
2023-01-02T19:04:01.172Z,12.00
2023-01-02T19:06:28.538Z,11.99
2023-01-02T19:09:02.635Z,11.99
2023-01-02T19:11:52.216Z,12.03
2023-01-02T19:14:23.699Z,12.10
2023-01-02T19:17:01.476Z,12.08
2023-01-02T19:19:29.404Z,12.10
2023-01-02T19:21:57.209Z,12.05
2023-01-02T19:24:28.089Z,11.89
2023-01-02T19:26:57.492Z,11.67
2023-01-02T19:29:26.971Z,11.50
2023-01-02T19:32:03.440Z,11.42
2023-01-02T19:34:40.878Z,11.39
2023-01-02T19:37:11.477Z,11.32
2023-01-02T19:39:53.701Z,11.28
2023-01-02T19:42:23.917Z,11.23
2023-01-02T19:44:56.790Z,11.17
2023-01-02T19:47:26.949Z,11.18
2023-01-02T19:49:54.753Z,11.12
2023-01-02T19:52:23.082Z,11.11
2023-01-02T19:54:53.752Z,11.12
2023-01-02T19:57:22.933Z,11.14
2023-01-02T19:59:53.362Z,11.22
2023-01-02T20:02:22.904Z,11.05
2023-01-02T20:04:52.932Z,10.98
2023-01-02T20:07:25.270Z,10.91
2023-01-02T20:09:53.975Z,10.76
2023-01-02T20:12:34.840Z,10.67
2023-01-02T20:15:18.462Z,10.50
2023-01-02T20:17:46.201Z,10.42
2023-01-02T20:20:16.680Z,10.29
2023-01-02T20:22:44.532Z,10.20
2023-01-02T20:25:13.628Z,10.05
2023-01-02T20:27:40.752Z,9.94
2023-01-02T20:30:09.462Z,9.82
2023-01-02T20:32:36.835Z,9.68
2023-01-02T20:35:05.044Z,9.56
2023-01-02T20:37:33.289Z,9.49
2023-01-02T20:40:00.485Z,9.40
2023-01-02T20:42:28.111Z,9.37
2023-01-02T20:44:56.053Z,9.25
2023-01-02T20:47:23.238Z,9.15
2023-01-02T20:49:50.530Z,9.14
2023-01-02T20:52:19.235Z,9.20
2023-01-02T20:54:46.499Z,9.10
2023-01-02T20:57:13.648Z,8.96
2023-01-02T20:59:40.687Z,8.85
2023-01-02T21:02:07.821Z,8.81
2023-01-02T21:04:37.303Z,8.83
2023-01-02T21:07:06.067Z,8.83
2023-01-02T21:09:33.640Z,8.84
2023-01-02T21:12:00.645Z,8.82
2023-01-02T21:14:31.126Z,8.79
2023-01-02T21:17:02.664Z,8.75
2023-01-02T21:19:29.920Z,8.75
2023-01-02T21:21:57.175Z,8.78
2023-01-02T21:24:24.163Z,8.75
2023-01-02T21:26:51.278Z,8.69
2023-01-02T21:29:19.251Z,8.59
2023-01-02T21:31:46.372Z,8.54
2023-01-02T21:34:13.945Z,8.51
2023-01-02T21:36:40.931Z,8.47
2023-01-02T21:39:07.974Z,8.39
2023-01-02T21:41:53.400Z,8.44
2023-01-02T21:44:20.369Z,8.36
2023-01-02T21:46:47.329Z,8.33
2023-01-02T21:49:15.183Z,8.39
2023-01-02T21:51:42.167Z,8.38
2023-01-02T21:54:09.116Z,8.45
2023-01-02T21:56:36.075Z,8.40
2023-01-02T21:59:03.076Z,8.35
2023-01-02T22:01:30.240Z,8.34
2023-01-02T22:03:57.556Z,8.32
2023-01-02T22:06:24.692Z,8.33
2023-01-02T22:08:51.634Z,8.27
2023-01-02T22:11:37.136Z,8.24
2023-01-02T22:14:04.158Z,8.27
2023-01-02T22:16:31.321Z,8.27
2023-01-02T22:18:58.419Z,8.29
2023-01-02T22:21:25.515Z,8.27
2023-01-02T22:23:52.538Z,8.24
2023-01-02T22:26:19.599Z,8.25
2023-01-02T22:28:46.562Z,8.28
2023-01-02T22:31:13.709Z,8.27
2023-01-02T22:33:41.047Z,8.18
2023-01-02T22:36:08.640Z,8.18
2023-01-02T22:38:49.089Z,8.23
2023-01-02T22:41:22.451Z,8.21
2023-01-02T22:43:49.402Z,8.16
2023-01-02T22:46:22.867Z,8.17
2023-01-02T22:48:50.468Z,8.21
2023-01-02T22:51:22.818Z,8.19
2023-01-02T22:53:58.095Z,8.14
2023-01-02T22:56:26.415Z,8.11
2023-01-02T22:58:53.348Z,8.22
2023-01-02T23:01:30.325Z,8.06
2023-01-02T23:03:57.907Z,8.05
2023-01-02T23:06:25.497Z,7.98
2023-01-02T23:08:52.812Z,7.96
2023-01-02T23:11:20.671Z,7.97
2023-01-02T23:13:54.587Z,7.92
2023-01-02T23:16:42.398Z,7.96
2023-01-02T23:19:15.560Z,7.88
2023-01-02T23:21:44.422Z,7.87
2023-01-02T23:24:13.207Z,7.86
2023-01-02T23:26:46.537Z,7.85
2023-01-02T23:29:14.041Z,7.84
2023-01-02T23:31:44.014Z,7.82
2023-01-02T23:34:13.258Z,7.80
2023-01-02T23:36:41.067Z,7.83
2023-01-02T23:39:14.040Z,7.72
2023-01-02T23:41:42.404Z,7.72
2023-01-02T23:44:10.573Z,7.70
2023-01-02T23:46:37.872Z,7.72
2023-01-02T23:49:05.316Z,7.74
2023-01-02T23:51:32.621Z,7.79
2023-01-02T23:54:00.298Z,7.72
2023-01-02T23:56:31.800Z,7.76
2023-01-02T23:59:00.939Z,7.80
